Latest Weather Observations for Moruya Airport

IDN60801

Issued at 9:32 am EDT Tuesday 31 March 2015 (issued every 30 minutes, with the page automatically refreshed every 10 minutes)

About weather observations | Map of weather stations | Latest weather observations for NSW | Other Formats
Station Details ID: 069148 Name: MORUYA AIRPORT AWS Lat: -35.90 Lon: 150.14 Height: 4.0 m
Data from the previous 72 hours. | See also: Recent months for locations in New South Wales
Date/Time
EDT
Temp
°C
App
Temp
°C
Dew
Point
Rel
Hum
%
Delta-T
°C
Wind Press
QNH
hPa
Press
MSL
hPa
Rain
since 9 am
mm
Dir
 
Spd
km/h
Gust
km/h
Spd
kts
Gust
kts
31/09:30am 18.3 18.5 15.7 85 1.5 W 9 15 5 8 1027.8 1027.7 0.0
31/09:00am 16.2 16.6 15.4 95 0.5 WSW 7 13 4 7 1027.4 1027.3 0.0
31/08:30am 14.9 15.7 14.9 100 0.0 WSW 4 7 2 4 1027.1 1027.0 0.0
31/08:00am 13.8 14.6 13.8 100 0.0 WSW 2 6 1 3 1026.8 1026.7 0.0
31/07:30am 12.7 12.8 12.7 100 0.0 WSW 4 9 2 5 1026.4 1026.3 0.0
31/07:00am 13.2 12.9 13.2 100 0.0 W 7 11 4 6 1026.2 1026.1 0.0
31/06:30am 13.5 13.3 13.5 100 0.0 WSW 7 11 4 6 1025.8 1025.7 0.0
31/06:00am 13.8 13.3 13.8 100 0.0 WSW 9 13 5 7 1025.6 1025.5 0.0
31/05:30am 13.6 13.4 13.6 100 0.0 WSW 7 11 4 6 1025.5 1025.4 0.0
31/05:00am 13.4 12.8 13.4 100 0.0 SW 9 11 5 6 1025.4 1025.3 0.0
31/04:30am 13.8 13.7 13.8 100 0.0 W 7 11 4 6 1025.5 1025.4 0.0
31/04:00am 13.8 13.3 13.8 100 0.0 W 9 13 5 7 1025.6 1025.5 0.0
31/03:30am 14.0 13.6 14.0 100 0.0 W 9 13 5 7 1025.7 1025.6 0.0
31/03:00am 13.8 13.9 13.8 100 0.0 WSW 6 9 3 5 1025.7 1025.6 0.0
31/02:30am 14.0 14.5 14.0 100 0.0 WSW 4 7 2 4 1025.9 1025.8 0.0
31/02:00am 14.6 16.1 14.6 100 0.0 CALM 0 6 0 3 1026.0 1025.9 0.0
31/01:30am 14.6 15.7 14.6 100 0.0 WSW 2 7 1 4 1026.0 1025.9 0.0
31/01:00am 14.4 15.4 14.4 100 0.0 W 2 7 1 4 1026.0 1025.9 0.0
31/12:30am 14.7 16.2 14.7 100 0.0 CALM 0 0 0 0 1026.1 1026.0 0.0
 
Date/Time
EDT
Temp
°C
App
Temp
°C
Dew
Point
Rel
Hum
%
Delta-T
°C
Wind Press
QNH
hPa
Press
MSL
hPa
Rain
since 9 am
mm
Dir
 
Spd
km/h
Gust
km/h
Spd
kts
Gust
kts
30/11:30pm 16.1 17.8 16.1 100 0.0 WNW 2 6 1 3 1025.9 1025.8 0.0
30/11:00pm 16.5 17.6 16.5 100 0.0 WSW 6 9 3 5 1025.8 1025.7 0.0
30/10:30pm 16.3 17.3 16.3 100 0.0 WSW 6 9 3 5 1025.8 1025.7 0.0
30/10:00pm 15.9 17.9 15.9 100 0.0 CALM 0 0 0 0 1025.8 1025.7 0.0
30/09:30pm 16.3 18.4 16.3 100 0.0 CALM 0 0 0 0 1025.7 1025.6 0.0
30/09:00pm 16.8 19.1 16.8 100 0.0 CALM 0 0 0 0 1025.6 1025.5 0.0
30/08:30pm 16.9 18.1 16.9 100 0.0 SW 6 7 3 4 1025.4 1025.3 0.0
30/08:00pm 17.4 19.8 17.1 98 0.2 CALM 0 0 0 0 1025.0 1024.9 0.0
30/07:30pm 18.1 20.7 17.5 96 0.4 CALM 0 0 0 0 1024.5 1024.4 0.0
30/07:00pm 18.9 21.2 17.6 92 0.8 N 2 6 1 3 1024.2 1024.1 0.0
30/06:30pm 20.1 22.8 17.7 86 1.5 CALM 0 0 0 0 1023.7 1023.6 0.0
30/06:00pm 20.6 22.9 17.8 84 1.7 N 2 7 1 4 1023.4 1023.3 0.0
30/05:30pm 20.8 21.7 17.6 82 2.0 N 9 13 5 7 1023.1 1023.0 0.0
30/05:00pm 21.0 21.0 17.2 79 2.3 NE 13 19 7 10 1023.0 1022.9 0.0
30/04:30pm 21.1 20.9 16.7 76 2.7 NE 13 17 7 9 1022.9 1022.8 0.0
30/04:00pm 21.6 21.1 15.9 70 3.4 ENE 13 15 7 8 1022.8 1022.7 0.0
30/03:30pm 21.6 22.0 16.3 72 3.2 ENE 9 13 5 7 1022.7 1022.6 0.0
30/03:00pm 20.9 20.5 15.2 70 3.4 NE 11 13 6 7 1022.9 1022.8 0.0
30/02:30pm 21.0 21.1 15.5 71 3.3 ENE 9 13 5 7 1023.0 1022.9 0.0
30/02:00pm 20.7 20.8 15.5 72 3.1 E 9 11 5 6 1023.1 1023.0 0.0
30/01:30pm 20.9 21.1 14.8 68 3.6 ESE 7 11 4 6 1023.4 1023.3 0.0
30/01:00pm 21.3 21.8 14.9 67 3.8 SSE 6 11 3 6 1023.8 1023.7 0.0
30/12:30pm 20.7 21.4 14.4 67 3.7 WNW 4 7 2 4 1024.2 1024.1 0.0
30/12:00pm 20.7 20.5 14.6 68 3.6 WSW 9 15 5 8 1024.2 1024.1 0.0
30/11:30am 19.2 20.1 14.0 72 3.0 WSW 2 7 1 4 1024.6 1024.5 0.0
30/11:00am 19.6 19.7 14.0 70 3.2 WSW 6 9 3 5 1024.8 1024.7 0.0
30/10:30am 19.6 19.2 14.0 70 3.2 WNW 9 13 5 7 1024.9 1024.8 0.0
30/10:00am 19.2 19.3 14.5 74 2.7 WSW 7 11 4 6 1024.9 1024.8 0.0
30/09:30am 15.7 16.4 13.4 86 1.3 WSW 2 9 1 5 1025.0 1024.9 0.0
30/09:00am 14.3 14.8 12.9 91 0.8 WNW 2 7 1 4 1025.1 1025.0 0.0
30/08:30am 12.5 13.3 12.5 100 0.0 CALM 0 0 0 0 1024.8 1024.7 0.0
30/08:00am 11.2 11.6 11.2 100 0.0 CALM 0 6 0 3 1024.5 1024.4 0.0
30/07:30am 10.6 10.4 10.6 100 0.0 WSW 2 9 1 5 1024.3 1024.2 0.0
30/07:00am 10.6 10.8 10.6 100 0.0 CALM 0 0 0 0 1023.9 1023.8 0.0
30/06:30am 10.9 11.1 10.6 98 0.2 CALM 0 6 0 3 1023.5 1023.4 0.0
30/06:00am 11.5 10.6 10.7 95 0.4 W 6 9 3 5 1023.1 1023.0 0.0
30/05:30am 11.7 10.7 11.1 96 0.3 WSW 7 13 4 7 1022.9 1022.8 0.0
30/05:00am 11.7 10.1 11.5 99 0.1 WSW 11 15 6 8 1022.8 1022.7 0.0
30/04:30am 10.8 9.4 10.8 100 0.0 WSW 9 11 5 6 1022.8 1022.7 0.0
30/04:00am 11.0 9.9 10.7 98 0.2 WSW 7 11 4 6 1022.9 1022.8 0.0
30/03:30am 11.3 10.2 10.7 96 0.3 WSW 7 11 4 6 1022.8 1022.7 0.0
30/03:00am 11.8 10.7 10.7 93 0.6 W 7 11 4 6 1023.1 1023.0 0.0
30/02:30am 12.2 11.1 10.6 90 0.8 W 7 9 4 5 1023.3 1023.2 0.0
30/02:00am 12.4 11.3 10.6 89 0.9 W 7 13 4 7 1023.4 1023.3 0.0
30/01:30am 12.7 11.8 10.6 87 1.1 W 6 9 3 5 1023.3 1023.2 0.0
30/01:00am 13.5 12.2 11.4 87 1.1 WSW 9 15 5 8 1023.3 1023.2 0.0
30/12:30am 13.1 11.9 11.5 90 0.8 WSW 9 13 5 7 1023.1 1023.0 0.0
30/12:00am 12.7 11.4 11.4 92 0.7 WSW 9 11 5 6 1023.3 1023.2 0.0
 
Date/Time
EDT
Temp
°C
App
Temp
°C
Dew
Point
Rel
Hum
%
Delta-T
°C
Wind Press
QNH
hPa
Press
MSL
hPa
Rain
since 9 am
mm
Dir
 
Spd
km/h
Gust
km/h
Spd
kts
Gust
kts
29/11:30pm 12.8 12.1 11.9 94 0.5 W 7 11 4 6 1023.5 1023.4 0.0
29/11:00pm 12.5 11.7 11.7 95 0.4 W 7 11 4 6 1023.5 1023.4 0.0
29/10:30pm 12.9 12.3 12.3 96 0.3 WSW 7 11 4 6 1023.5 1023.4 0.0
29/10:00pm 12.1 12.4 12.1 100 0.0 W 2 7 1 4 1023.3 1023.2 0.0
29/09:30pm 12.7 13.5 12.7 100 0.0 CALM 0 0 0 0 1023.1 1023.0 0.0
29/09:00pm 12.8 13.6 12.6 99 0.1 CALM 0 0 0 0 1022.9 1022.8 0.0
29/08:30pm 13.6 14.6 13.1 97 0.3 CALM 0 0 0 0 1022.7 1022.6 0.0
29/08:00pm 14.3 15.3 13.2 93 0.6 CALM 0 0 0 0 1022.2 1022.1 0.0
29/07:30pm 14.7 14.9 12.0 84 1.5 SW 2 6 1 3 1021.8 1021.7 0.0
29/07:00pm 16.8 16.6 13.1 79 2.1 SW 6 7 3 4 1021.4 1021.3 0.0
29/06:30pm 20.1 20.9 13.6 66 3.7 S 2 6 1 3 1020.9 1020.8 0.0
29/06:00pm 21.3 20.5 11.6 54 5.4 SSE 7 9 4 5 1020.7 1020.6 0.0
29/05:30pm 21.7 20.3 10.8 50 6.0 SSE 9 13 5 7 1020.5 1020.4 0.0
29/05:00pm 22.1 20.7 10.9 49 6.2 NE 9 11 5 6 1020.4 1020.3 0.0
29/04:30pm 22.1 20.5 11.5 51 5.9 ESE 11 15 6 8 1020.3 1020.2 0.0
29/04:00pm 22.2 20.6 11.6 51 5.9 E 11 17 6 9 1020.5 1020.4 0.0
29/03:30pm 22.4 20.4 11.5 50 6.1 E 13 17 7 9 1020.7 1020.6 0.0
29/03:00pm 22.7 21.4 13.7 56 5.2 E 13 17 7 9 1020.8 1020.7 0.0
29/02:30pm 21.9 20.3 13.8 60 4.7 E 15 19 8 10 1020.9 1020.8 0.0
29/02:00pm 21.8 20.4 13.4 59 4.8 ENE 13 15 7 8 1021.1 1021.0 0.0
29/01:30pm 21.7 20.5 14.1 62 4.4 ENE 13 17 7 9 1021.4 1021.3 0.0
29/01:00pm 20.9 19.6 13.6 63 4.2 ENE 13 15 7 8 1021.7 1021.6 0.0
29/12:30pm 21.0 20.0 13.4 62 4.4 ENE 11 13 6 7 1022.0 1021.9 0.0
29/12:00pm 20.6 19.3 13.6 64 4.0 E 13 17 7 9 1022.1 1022.0 0.0
29/11:30am 20.9 19.6 12.6 59 4.7 E 11 17 6 9 1022.2 1022.1 0.0
29/11:00am 20.2 19.1 11.9 59 4.6 SSW 9 13 5 7 1022.3 1022.2 0.0
29/10:30am 19.1 17.9 11.7 62 4.1 SSE 9 13 5 7 1022.4 1022.3 0.0
29/10:00am 17.9 17.2 13.2 74 2.6 WSW 9 13 5 7 1022.4 1022.3 0.0
29/09:30am 16.6 16.9 13.3 81 1.8 N 4 9 2 5 1022.4 1022.3 0.0
29/09:00am 14.5 14.5 14.2 98 0.2 WSW 7 11 4 6 1022.3 1022.2 0.0
29/08:30am 13.0 13.2 13.0 100 0.0 SW 4 7 2 4 1022.0 1021.9 0.0
29/08:00am 10.7 10.9 10.7 100 0.0 CALM 0 0 0 0 1021.8 1021.7 0.0
29/07:30am 9.0 7.1 9.0 100 0.0 NW 9 11 5 6 1021.6 1021.5 0.0
29/07:23am 9.1 7.2 9.1 100 0.0 NW 9 11 5 6 1021.5 1021.4 0.0
29/07:09am 8.3 6.8 8.3 100 0.0 WNW 6 7 3 4 1021.5 1021.4 0.0
29/07:00am 8.6 7.0 8.6 100 0.0 WNW 7 9 4 5 1021.4 1021.3 0.0
29/06:30am 8.8 7.4 8.8 100 0.0 NW 6 7 3 4 1021.3 1021.2 0.0
29/06:00am 9.2 7.7 9.2 100 0.0 WNW 7 11 4 6 1021.1 1021.0 0.0
29/05:30am 9.5 8.1 9.5 100 0.0 WNW 7 7 4 4 1021.1 1021.0 0.0
29/05:00am 9.5 8.3 9.5 100 0.0 W 6 9 3 5 1021.1 1021.0 0.0
29/04:30am 9.9 8.2 9.9 100 0.0 WNW 9 11 5 6 1021.1 1021.0 0.0
29/04:00am 9.6 8.4 9.6 100 0.0 NW 6 7 3 4 1021.2 1021.1 0.0
29/03:30am 9.6 9.5 9.6 100 0.0 CALM 0 0 0 0 1021.4 1021.3 0.0
29/03:00am 9.8 9.8 9.8 100 0.0 CALM 0 0 0 0 1021.9 1021.8 0.0
29/02:30am 9.7 8.9 9.7 100 0.0 WNW 4 7 2 4 1022.0 1021.9 0.0
29/02:00am 10.3 9.7 10.3 100 0.0 WNW 4 6 2 3 1022.3 1022.2 0.0
29/01:30am 10.8 10.7 10.8 100 0.0 WNW 2 7 1 4 1022.4 1022.3 0.0
29/01:00am 10.8 11.1 10.8 100 0.0 CALM 0 0 0 0 1022.7 1022.6 0.0
29/12:30am 11.5 10.8 11.5 100 0.0 WNW 6 7 3 4 1023.0 1022.9 0.0
29/12:00am 11.8 11.2 11.8 100 0.0 WNW 6 6 3 3 1023.2 1023.1 0.0
 
Date/Time
EDT
Temp
°C
App
Temp
°C
Dew
Point
Rel
Hum
%
Delta-T
°C
Wind Press
QNH
hPa
Press
MSL
hPa
Rain
since 9 am
mm
Dir
 
Spd
km/h
Gust
km/h
Spd
kts
Gust
kts
28/11:40pm 11.9 11.4 11.9 100 0.0 WNW 6 6 3 3 1023.3 1023.2 0.0
28/11:30pm 12.1 11.6 12.1 100 0.0 WNW 6 6 3 3 1023.4 1023.3 0.0
28/11:00pm 12.8 12.4 12.3 97 0.3 WNW 6 6 3 3 1023.4 1023.3 0.0
28/10:30pm 13.5 13.0 12.6 94 0.5 WNW 7 7 4 4 1023.6 1023.5 0.0
28/10:00pm 13.9 13.4 12.8 93 0.6 WNW 7 9 4 5 1023.7 1023.6 0.0
28/09:34pm 14.0 13.5 12.7 92 0.7 W 7 9 4 5 1023.6 1023.5 0.0
28/09:30pm 14.1 13.6 12.8 92 0.7 W 7 9 4 5 1023.5 1023.4 0.0
28/09:22pm 14.2 13.8 12.9 92 0.7 W 7 9 4 5 1023.4 1023.3 0.0
28/09:00pm 14.7 15.7 13.2 91 0.8 CALM 0 0 0 0 1023.3 1023.2 0.0
28/08:30pm 15.3 15.1 13.1 87 1.2 WNW 6 7 3 4 1023.2 1023.1 0.0
28/08:00pm 16.3 15.7 13.4 83 1.6 NW 9 11 5 6 1022.9 1022.8 0.0
28/07:30pm 18.5 17.6 12.7 69 3.2 ENE 9 13 5 7 1022.5 1022.4 0.0
28/07:00pm 18.8 17.5 12.5 67 3.5 E 11 15 6 8 1022.3 1022.2 0.0
28/06:30pm 19.0 17.6 12.3 65 3.7 ENE 11 15 6 8 1022.3 1022.2 0.0
28/06:00pm 20.0 18.3 12.3 61 4.3 ENE 13 17 7 9 1022.0 1021.9 0.0
28/05:30pm 20.4 17.5 11.1 55 5.1 ENE 17 22 9 12 1021.9 1021.8 0.0
28/05:00pm 20.6 17.8 11.2 55 5.2 ENE 17 22 9 12 1021.8 1021.7 0.0
28/04:30pm 20.9 17.5 10.7 52 5.6 NE 19 24 10 13 1021.7 1021.6 0.0
28/04:00pm 20.9 17.2 10.1 50 5.8 ENE 20 24 11 13 1021.7 1021.6 0.0
28/03:30pm 21.4 17.6 9.9 48 6.2 ENE 20 26 11 14 1021.7 1021.6 0.0
28/03:00pm 21.6 17.5 8.8 44 6.8 ENE 20 24 11 13 1021.8 1021.7 0.0
28/02:30pm 21.1 17.1 8.4 44 6.7 ENE 19 20 10 11 1022.0 1021.9 0.0
28/02:00pm 21.8 18.6 11.2 51 5.8 ENE 19 22 10 12 1022.2 1022.1 0.0
28/01:30pm 21.4 17.9 10.3 49 6.0 E 19 20 10 11 1022.4 1022.3 0.0
28/01:00pm 20.8 17.8 9.1 47 6.2 ENE 15 17 8 9 1022.9 1022.8 0.0
28/12:30pm 20.2 17.4 8.5 47 6.1 ENE 13 15 7 8 1023.3 1023.2 0.0
28/12:00pm 20.1 17.4 8.8 48 5.9 E 13 15 7 8 1023.5 1023.4 0.0
28/11:30am 19.9 17.3 9.2 50 5.7 E 13 15 7 8 1023.5 1023.4 0.0
28/11:00am 19.5 16.9 5.9 41 6.7 S 9 13 5 7 1023.5 1023.4 0.0
28/10:30am 18.6 15.8 6.8 46 5.9 SSW 11 13 6 7 1023.6 1023.5 0.0
28/10:00am 17.3 15.7 8.7 57 4.4 SW 7 9 4 5 1023.6 1023.5 0.0

Other Formats:

Comma delimited format used in spreadsheet applications
http://www.bom.gov.au/fwo/IDN60801/IDN60801.95937.axf

JavaScript Object Notation format (JSON) in row-major order
http://www.bom.gov.au/fwo/IDN60801/IDN60801.95937.json